Terminal Aerodrome Forecast
Issued by NWS Blacksburg, VA

Home | Current Version | Previous Version | Text Only | Print | Product List | Glossary On
Versions: 1 2 3 4 5 6 7 8 9 10 11 12 13 14 15 16 17 18 19 20 21 22 23 24 25 26
000
FTUS41 KRNK 171125
TAFROA
TAF
KROA 171125Z 1712/1812 02004KT P6SM SCT050
     FM171400 09005KT P6SM SCT015 BKN050
     FM171600 10005KT P6SM SCT025 BKN035
     FM171900 12003KT P6SM SCT035 BKN050
     FM180000 10004KT P6SM SCT025 SCT100=

USA.gov is the U.S. government's official web portal to all federal, state and local government web resources and services.